sensor_id;sensor_type;location;lat;lon;timestamp;pressure;altitude;pressure_sealevel;temperature;humidity
43488;BME280;29078;41.932;25.554;2023-03-19T00:01:53;100134.66;;;9.48;38.94
43488;BME280;29078;41.932;25.554;2023-03-19T00:04:19;100005.59;;;8.71;39.26
43488;BME280;29078;41.932;25.554;2023-03-19T00:06:45;100013.38;;;8.80;38.88
43488;BME280;29078;41.932;25.554;2023-03-19T00:09:11;100129.03;;;9.43;39.17
43488;BME280;29078;41.932;25.554;2023-03-19T00:11:36;100097.44;;;9.17;39.35
43488;BME280;29078;41.932;25.554;2023-03-19T00:14:02;100065.72;;;9.01;39.30
43488;BME280;29078;41.932;25.554;2023-03-19T00:16:28;100054.97;;;8.95;39.64
43488;BME280;29078;41.932;25.554;2023-03-19T00:18:53;100121.09;;;9.35;39.48
43488;BME280;29078;41.932;25.554;2023-03-19T00:21:19;100061.13;;;9.03;39.57
43488;BME280;29078;41.932;25.554;2023-03-19T00:23:45;100124.75;;;9.42;39.15
43488;BME280;29078;41.932;25.554;2023-03-19T00:26:11;100123.25;;;9.40;39.60
43488;BME280;29078;41.932;25.554;2023-03-19T00:28:36;100053.69;;;8.99;39.67
43488;BME280;29078;41.932;25.554;2023-03-19T00:31:09;100123.09;;;9.41;39.44
43488;BME280;29078;41.932;25.554;2023-03-19T00:33:35;100108.63;;;9.45;39.84
43488;BME280;29078;41.932;25.554;2023-03-19T00:36:01;100089.09;;;9.30;39.81
43488;BME280;29078;41.932;25.554;2023-03-19T00:38:26;100001.16;;;8.71;39.91
43488;BME280;29078;41.932;25.554;2023-03-19T00:40:52;100048.09;;;9.02;40.06
43488;BME280;29078;41.932;25.554;2023-03-19T00:43:17;100114.84;;;9.36;40.11
43488;BME280;29078;41.932;25.554;2023-03-19T00:45:43;100046.63;;;8.81;40.85
43488;BME280;29078;41.932;25.554;2023-03-19T00:48:08;100041.63;;;8.70;40.62
43488;BME280;29078;41.932;25.554;2023-03-19T00:50:33;100061.28;;;8.84;40.60
43488;BME280;29078;41.932;25.554;2023-03-19T00:52:59;100008.06;;;8.46;40.77
43488;BME280;29078;41.932;25.554;2023-03-19T00:55:24;100099.81;;;9.03;40.91
43488;BME280;29078;41.932;25.554;2023-03-19T00:57:51;100110.81;;;8.98;41.19
43488;BME280;29078;41.932;25.554;2023-03-19T01:00:17;100115.28;;;9.06;40.91
43488;BME280;29078;41.932;25.554;2023-03-19T01:02:43;100101.00;;;9.08;40.89
43488;BME280;29078;41.932;25.554;2023-03-19T01:05:09;100030.50;;;8.58;41.34
43488;BME280;29078;41.932;25.554;2023-03-19T01:07:34;100020.88;;;8.67;41.12
43488;BME280;29078;41.932;25.554;2023-03-19T01:09:59;100091.13;;;9.10;41.07
43488;BME280;29078;41.932;25.554;2023-03-19T01:12:25;100054.91;;;8.86;40.79
43488;BME280;29078;41.932;25.554;2023-03-19T01:14:51;100049.13;;;8.83;40.80
43488;BME280;29078;41.932;25.554;2023-03-19T01:17:16;100050.75;;;8.84;41.06
43488;BME280;29078;41.932;25.554;2023-03-19T01:19:41;100084.00;;;9.03;40.78
43488;BME280;29078;41.932;25.554;2023-03-19T01:22:07;100030.25;;;8.70;40.89
43488;BME280;29078;41.932;25.554;2023-03-19T01:24:33;100082.88;;;9.05;40.87
43488;BME280;29078;41.932;25.554;2023-03-19T01:26:59;100027.69;;;8.78;40.63
43488;BME280;29078;41.932;25.554;2023-03-19T01:29:25;100088.69;;;9.17;40.92
43488;BME280;29078;41.932;25.554;2023-03-19T01:31:50;99986.38;;;8.52;40.80
43488;BME280;29078;41.932;25.554;2023-03-19T01:34:16;100043.38;;;8.87;40.59
43488;BME280;29078;41.932;25.554;2023-03-19T01:36:41;100082.56;;;9.08;41.04
43488;BME280;29078;41.932;25.554;2023-03-19T01:39:07;100104.97;;;9.12;40.95
43488;BME280;29078;41.932;25.554;2023-03-19T01:41:33;100104.81;;;9.14;40.65
43488;BME280;29078;41.932;25.554;2023-03-19T01:43:58;100004.13;;;8.50;40.84
43488;BME280;29078;41.932;25.554;2023-03-19T01:46:32;100095.72;;;9.08;41.12
43488;BME280;29078;41.932;25.554;2023-03-19T01:49:00;100091.91;;;9.03;41.17
43488;BME280;29078;41.932;25.554;2023-03-19T01:51:29;100100.78;;;9.02;41.01
43488;BME280;29078;41.932;25.554;2023-03-19T01:54:05;100040.81;;;8.52;41.02
43488;BME280;29078;41.932;25.554;2023-03-19T01:56:33;100082.97;;;8.96;40.75
43488;BME280;29078;41.932;25.554;2023-03-19T01:59:18;100111.84;;;9.05;40.67
43488;BME280;29078;41.932;25.554;2023-03-19T02:01:51;100059.44;;;8.76;40.49
43488;BME280;29078;41.932;25.554;2023-03-19T02:04:19;100108.75;;;9.10;40.55
43488;BME280;29078;41.932;25.554;2023-03-19T02:06:45;100109.56;;;9.10;40.28
43488;BME280;29078;41.932;25.554;2023-03-19T02:09:12;100036.44;;;8.60;40.50
43488;BME280;29078;41.932;25.554;2023-03-19T02:11:39;100108.22;;;9.06;40.54
43488;BME280;29078;41.932;25.554;2023-03-19T02:14:04;100051.22;;;8.79;40.15
43488;BME280;29078;41.932;25.554;2023-03-19T02:16:30;100104.97;;;9.12;40.20
43488;BME280;29078;41.932;25.554;2023-03-19T02:18:56;100063.09;;;8.83;40.28
43488;BME280;29078;41.932;25.554;2023-03-19T02:21:21;100108.22;;;9.06;39.96
43488;BME280;29078;41.932;25.554;2023-03-19T02:24:01;100124.75;;;9.16;40.03
43488;BME280;29078;41.932;25.554;2023-03-19T02:26:28;100033.81;;;8.60;39.96
43488;BME280;29078;41.932;25.554;2023-03-19T02:28:55;100123.25;;;9.14;40.06
43488;BME280;29078;41.932;25.554;2023-03-19T02:31:21;100030.31;;;8.52;39.67
43488;BME280;29078;41.932;25.554;2023-03-19T02:34:00;100116.78;;;9.08;40.01
43488;BME280;29078;41.932;25.554;2023-03-19T02:36:31;100117.94;;;9.06;39.94
43488;BME280;29078;41.932;25.554;2023-03-19T02:39:01;100118.44;;;9.09;39.81
43488;BME280;29078;41.932;25.554;2023-03-19T02:41:28;100103.06;;;8.97;39.76
43488;BME280;29078;41.932;25.554;2023-03-19T02:43:57;100024.88;;;8.53;39.73
43488;BME280;29078;41.932;25.554;2023-03-19T02:46:22;100133.34;;;9.18;39.88
43488;BME280;29078;41.932;25.554;2023-03-19T02:48:47;100051.13;;;8.63;39.81
43488;BME280;29078;41.932;25.554;2023-03-19T02:51:13;100121.50;;;9.22;39.86
43488;BME280;29078;41.932;25.554;2023-03-19T02:53:38;100128.06;;;9.18;39.69
43488;BME280;29078;41.932;25.554;2023-03-19T02:56:04;100125.72;;;9.15;39.64
43488;BME280;29078;41.932;25.554;2023-03-19T02:58:30;100039.53;;;8.56;39.88
43488;BME280;29078;41.932;25.554;2023-03-19T03:00:55;100131.97;;;9.14;39.74
43488;BME280;29078;41.932;25.554;2023-03-19T03:03:21;100023.41;;;8.33;40.31
43488;BME280;29078;41.932;25.554;2023-03-19T03:05:46;100152.84;;;9.08;40.34
43488;BME280;29078;41.932;25.554;2023-03-19T03:08:12;100124.13;;;8.97;40.47
43488;BME280;29078;41.932;25.554;2023-03-19T03:10:37;100082.31;;;8.58;40.69
43488;BME280;29078;41.932;25.554;2023-03-19T03:13:02;100091.81;;;8.51;41.02
43488;BME280;29078;41.932;25.554;2023-03-19T03:15:29;100139.41;;;8.93;41.47
43488;BME280;29078;41.932;25.554;2023-03-19T03:17:55;100151.81;;;9.01;41.30
43488;BME280;29078;41.932;25.554;2023-03-19T03:20:21;100158.72;;;9.02;41.65
43488;BME280;29078;41.932;25.554;2023-03-19T03:22:46;100155.28;;;9.01;41.53
43488;BME280;29078;41.932;25.554;2023-03-19T03:25:13;100162.03;;;9.04;42.22
43488;BME280;29078;41.932;25.554;2023-03-19T03:27:38;99992.47;;;8.00;41.85
43488;BME280;29078;41.932;25.554;2023-03-19T03:30:05;100089.03;;;8.52;42.11
43488;BME280;29078;41.932;25.554;2023-03-19T03:32:32;100115.41;;;8.78;42.39
43488;BME280;29078;41.932;25.554;2023-03-19T03:34:58;100107.13;;;8.73;42.09
43488;BME280;29078;41.932;25.554;2023-03-19T03:37:23;100174.22;;;9.05;42.37
43488;BME280;29078;41.932;25.554;2023-03-19T03:39:49;100166.94;;;8.99;42.09
43488;BME280;29078;41.932;25.554;2023-03-19T03:42:15;100102.78;;;8.64;42.10
43488;BME280;29078;41.932;25.554;2023-03-19T03:44:40;100152.78;;;9.00;42.26
43488;BME280;29078;41.932;25.554;2023-03-19T03:47:06;100095.34;;;8.59;42.21
43488;BME280;29078;41.932;25.554;2023-03-19T03:49:32;100155.41;;;9.00;42.58
43488;BME280;29078;41.932;25.554;2023-03-19T03:51:57;100076.63;;;8.45;42.38
43488;BME280;29078;41.932;25.554;2023-03-19T03:54:23;100064.59;;;8.42;42.18
43488;BME280;29078;41.932;25.554;2023-03-19T03:56:48;100162.19;;;9.02;42.12
43488;BME280;29078;41.932;25.554;2023-03-19T03:59:15;100171.75;;;9.03;42.05
43488;BME280;29078;41.932;25.554;2023-03-19T04:01:40;100152.47;;;9.03;41.59
43488;BME280;29078;41.932;25.554;2023-03-19T04:04:05;100168.97;;;9.05;41.83
43488;BME280;29078;41.932;25.554;2023-03-19T04:06:31;100018.91;;;8.16;41.23
43488;BME280;29078;41.932;25.554;2023-03-19T04:08:56;100164.06;;;9.10;41.61
43488;BME280;29078;41.932;25.554;2023-03-19T04:11:22;100123.66;;;8.83;41.34
43488;BME280;29078;41.932;25.554;2023-03-19T04:13:47;100144.06;;;8.99;41.19
43488;BME280;29078;41.932;25.554;2023-03-19T04:16:13;100145.19;;;8.97;40.97
43488;BME280;29078;41.932;25.554;2023-03-19T04:18:39;100136.47;;;8.96;40.98
43488;BME280;29078;41.932;25.554;2023-03-19T04:21:05;100153.22;;;9.13;40.94
43488;BME280;29078;41.932;25.554;2023-03-19T04:23:31;100155.53;;;9.16;41.24
43488;BME280;29078;41.932;25.554;2023-03-19T04:25:58;100144.94;;;9.08;40.82
43488;BME280;29078;41.932;25.554;2023-03-19T04:28:24;100064.22;;;8.55;40.60
43488;BME280;29078;41.932;25.554;2023-03-19T04:30:49;100093.91;;;8.65;40.71
43488;BME280;29078;41.932;25.554;2023-03-19T04:33:15;100081.28;;;8.51;40.43
43488;BME280;29078;41.932;25.554;2023-03-19T04:35:41;100167.31;;;9.04;40.61
43488;BME280;29078;41.932;25.554;2023-03-19T04:38:07;100085.72;;;8.50;40.66
43488;BME280;29078;41.932;25.554;2023-03-19T04:40:33;100160.38;;;9.03;40.97
43488;BME280;29078;41.932;25.554;2023-03-19T04:42:58;100096.84;;;8.62;40.75
43488;BME280;29078;41.932;25.554;2023-03-19T04:45:24;100190.25;;;9.11;40.79
43488;BME280;29078;41.932;25.554;2023-03-19T04:47:50;100111.72;;;8.71;40.74
43488;BME280;29078;41.932;25.554;2023-03-19T04:50:15;100163.94;;;8.94;40.39
43488;BME280;29078;41.932;25.554;2023-03-19T04:52:42;100164.13;;;8.82;40.46
43488;BME280;29078;41.932;25.554;2023-03-19T04:55:08;100115.34;;;8.52;40.34
43488;BME280;29078;41.932;25.554;2023-03-19T04:57:33;100173.25;;;8.88;40.72
43488;BME280;29078;41.932;25.554;2023-03-19T04:59:59;100188.00;;;8.99;40.51
43488;BME280;29078;41.932;25.554;2023-03-19T05:02:25;100189.66;;;9.00;40.64
43488;BME280;29078;41.932;25.554;2023-03-19T05:04:51;100184.69;;;8.97;40.49
43488;BME280;29078;41.932;25.554;2023-03-19T05:07:16;100165.50;;;8.86;40.63
43488;BME280;29078;41.932;25.554;2023-03-19T05:09:42;100114.28;;;8.63;40.71
43488;BME280;29078;41.932;25.554;2023-03-19T05:12:09;100140.16;;;8.68;40.26
43488;BME280;29078;41.932;25.554;2023-03-19T05:14:34;100202.13;;;9.15;40.39
43488;BME280;29078;41.932;25.554;2023-03-19T05:17:00;100165.75;;;8.93;40.19
43488;BME280;29078;41.932;25.554;2023-03-19T05:19:25;100148.72;;;8.87;40.37
43488;BME280;29078;41.932;25.554;2023-03-19T05:21:51;100153.25;;;8.95;39.95
43488;BME280;29078;41.932;25.554;2023-03-19T05:24:17;100194.28;;;9.23;40.09
43488;BME280;29078;41.932;25.554;2023-03-19T05:26:42;100170.69;;;9.14;39.35
43488;BME280;29078;41.932;25.554;2023-03-19T05:29:08;100209.75;;;9.44;39.55
43488;BME280;29078;41.932;25.554;2023-03-19T05:31:36;100088.84;;;8.72;39.54
43488;BME280;29078;41.932;25.554;2023-03-19T05:34:02;100205.16;;;9.46;39.40
43488;BME280;29078;41.932;25.554;2023-03-19T05:36:27;100129.13;;;9.08;39.31
43488;BME280;29078;41.932;25.554;2023-03-19T05:38:53;100173.72;;;9.27;39.25
43488;BME280;29078;41.932;25.554;2023-03-19T05:41:18;100201.19;;;9.42;39.31
43488;BME280;29078;41.932;25.554;2023-03-19T05:43:43;100159.16;;;9.15;39.31
43488;BME280;29078;41.932;25.554;2023-03-19T05:46:09;100119.22;;;8.84;39.32
43488;BME280;29078;41.932;25.554;2023-03-19T05:48:35;100145.25;;;9.05;39.13
43488;BME280;29078;41.932;25.554;2023-03-19T05:51:02;100198.75;;;9.49;39.25
43488;BME280;29078;41.932;25.554;2023-03-19T05:53:27;100175.44;;;9.36;39.06
43488;BME280;29078;41.932;25.554;2023-03-19T05:55:53;100183.25;;;9.46;38.90
43488;BME280;29078;41.932;25.554;2023-03-19T05:58:19;100209.19;;;9.59;38.98
43488;BME280;29078;41.932;25.554;2023-03-19T06:00:44;100146.72;;;9.25;38.81
43488;BME280;29078;41.932;25.554;2023-03-19T06:03:10;100180.25;;;9.41;38.77
43488;BME280;29078;41.932;25.554;2023-03-19T06:05:35;100221.38;;;9.60;39.08
43488;BME280;29078;41.932;25.554;2023-03-19T06:08:01;100202.63;;;9.63;38.96
43488;BME280;29078;41.932;25.554;2023-03-19T06:10:26;100207.91;;;9.63;38.81
43488;BME280;29078;41.932;25.554;2023-03-19T06:12:52;100156.53;;;9.41;38.87
43488;BME280;29078;41.932;25.554;2023-03-19T06:15:17;100133.75;;;9.32;38.82
43488;BME280;29078;41.932;25.554;2023-03-19T06:17:42;100208.38;;;9.84;38.80
43488;BME280;29078;41.932;25.554;2023-03-19T06:20:10;100209.56;;;9.90;38.71
43488;BME280;29078;41.932;25.554;2023-03-19T06:22:35;100203.28;;;9.91;38.62
43488;BME280;29078;41.932;25.554;2023-03-19T06:25:01;100178.16;;;9.70;39.29
43488;BME280;29078;41.932;25.554;2023-03-19T06:27:26;100213.19;;;9.88;39.19
43488;BME280;29078;41.932;25.554;2023-03-19T06:29:52;100224.75;;;9.96;39.70
43488;BME280;29078;41.932;25.554;2023-03-19T06:32:17;100196.34;;;9.81;39.28
43488;BME280;29078;41.932;25.554;2023-03-19T06:34:43;100175.03;;;9.75;39.70
43488;BME280;29078;41.932;25.554;2023-03-19T06:37:08;100186.97;;;9.87;39.54
43488;BME280;29078;41.932;25.554;2023-03-19T06:39:34;100153.06;;;9.66;39.75
43488;BME280;29078;41.932;25.554;2023-03-19T06:41:59;100197.38;;;9.97;39.75
43488;BME280;29078;41.932;25.554;2023-03-19T06:44:25;100184.00;;;9.90;39.41
43488;BME280;29078;41.932;25.554;2023-03-19T06:46:50;100184.78;;;9.82;39.10
43488;BME280;29078;41.932;25.554;2023-03-19T06:49:16;100168.50;;;9.87;38.86
43488;BME280;29078;41.932;25.554;2023-03-19T06:51:42;100250.00;;;10.32;39.21
43488;BME280;29078;41.932;25.554;2023-03-19T06:54:07;100238.97;;;10.37;39.04
43488;BME280;29078;41.932;25.554;2023-03-19T06:56:32;100225.78;;;10.37;39.14
43488;BME280;29078;41.932;25.554;2023-03-19T06:58:58;100232.78;;;10.46;39.15
43488;BME280;29078;41.932;25.554;2023-03-19T07:01:24;100230.63;;;10.49;39.24
43488;BME280;29078;41.932;25.554;2023-03-19T07:03:49;100173.56;;;10.14;39.21
43488;BME280;29078;41.932;25.554;2023-03-19T07:06:15;100166.78;;;10.12;39.50
43488;BME280;29078;41.932;25.554;2023-03-19T07:08:40;100139.19;;;9.98;39.55
43488;BME280;29078;41.932;25.554;2023-03-19T07:11:10;100203.69;;;10.38;39.30
43488;BME280;29078;41.932;25.554;2023-03-19T07:13:36;100235.78;;;10.59;39.41
43488;BME280;29078;41.932;25.554;2023-03-19T07:16:02;100226.03;;;10.60;38.92
43488;BME280;29078;41.932;25.554;2023-03-19T07:18:28;100225.41;;;10.66;39.00
43488;BME280;29078;41.932;25.554;2023-03-19T07:20:53;100222.91;;;10.56;38.72
43488;BME280;29078;41.932;25.554;2023-03-19T07:23:18;100196.97;;;10.43;38.57
43488;BME280;29078;41.932;25.554;2023-03-19T07:25:44;100216.47;;;10.67;38.54
43488;BME280;29078;41.932;25.554;2023-03-19T07:28:11;100158.63;;;10.31;38.13
43488;BME280;29078;41.932;25.554;2023-03-19T07:30:36;100218.00;;;10.77;38.10
43488;BME280;29078;41.932;25.554;2023-03-19T07:33:03;100121.66;;;10.31;38.31
43488;BME280;29078;41.932;25.554;2023-03-19T07:35:28;100232.72;;;11.04;38.40
43488;BME280;29078;41.932;25.554;2023-03-19T07:37:54;100219.16;;;11.07;37.63
43488;BME280;29078;41.932;25.554;2023-03-19T07:40:19;100143.38;;;10.75;38.06
43488;BME280;29078;41.932;25.554;2023-03-19T07:42:45;100214.91;;;11.31;37.67
43488;BME280;29078;41.932;25.554;2023-03-19T07:45:11;100207.31;;;11.28;37.63
43488;BME280;29078;41.932;25.554;2023-03-19T07:47:37;100164.66;;;11.06;36.78
43488;BME280;29078;41.932;25.554;2023-03-19T07:50:02;100134.63;;;10.99;36.74
43488;BME280;29078;41.932;25.554;2023-03-19T07:52:28;100190.75;;;11.42;37.04
43488;BME280;29078;41.932;25.554;2023-03-19T07:54:53;100215.03;;;11.62;36.78
43488;BME280;29078;41.932;25.554;2023-03-19T07:57:19;100204.28;;;11.55;36.80
43488;BME280;29078;41.932;25.554;2023-03-19T07:59:45;100199.50;;;11.59;36.78
43488;BME280;29078;41.932;25.554;2023-03-19T08:02:11;100152.09;;;11.41;36.95
43488;BME280;29078;41.932;25.554;2023-03-19T08:04:37;100138.03;;;11.49;36.68
43488;BME280;29078;41.932;25.554;2023-03-19T08:07:03;100192.53;;;11.82;36.25
43488;BME280;29078;41.932;25.554;2023-03-19T08:09:28;100114.25;;;11.40;36.60
43488;BME280;29078;41.932;25.554;2023-03-19T08:11:54;100098.59;;;11.31;35.87
43488;BME280;29078;41.932;25.554;2023-03-19T08:14:20;100194.66;;;11.95;36.37
43488;BME280;29078;41.932;25.554;2023-03-19T08:16:50;100159.47;;;11.78;36.53
43488;BME280;29078;41.932;25.554;2023-03-19T08:19:15;100215.91;;;12.18;36.77
43488;BME280;29078;41.932;25.554;2023-03-19T08:21:41;100133.84;;;11.78;36.44
43488;BME280;29078;41.932;25.554;2023-03-19T08:24:07;100202.28;;;12.29;36.42
43488;BME280;29078;41.932;25.554;2023-03-19T08:26:33;100203.06;;;12.37;36.81
43488;BME280;29078;41.932;25.554;2023-03-19T08:28:58;100199.56;;;12.45;37.06
43488;BME280;29078;41.932;25.554;2023-03-19T08:31:24;100195.38;;;12.51;37.10
43488;BME280;29078;41.932;25.554;2023-03-19T08:33:49;100125.94;;;12.09;37.82
43488;BME280;29078;41.932;25.554;2023-03-19T08:36:15;100119.13;;;12.15;37.50
43488;BME280;29078;41.932;25.554;2023-03-19T08:38:41;100165.38;;;12.58;37.13
43488;BME280;29078;41.932;25.554;2023-03-19T08:41:07;100185.13;;;12.79;36.89
43488;BME280;29078;41.932;25.554;2023-03-19T08:43:34;100064.53;;;12.14;36.57
43488;BME280;29078;41.932;25.554;2023-03-19T08:46:02;100140.16;;;12.70;36.85
43488;BME280;29078;41.932;25.554;2023-03-19T08:48:28;100182.28;;;13.03;36.48
43488;BME280;29078;41.932;25.554;2023-03-19T08:50:58;100179.03;;;13.16;36.26
43488;BME280;29078;41.932;25.554;2023-03-19T08:53:26;100164.50;;;13.12;36.16
43488;BME280;29078;41.932;25.554;2023-03-19T08:55:59;100185.19;;;13.39;36.11
43488;BME280;29078;41.932;25.554;2023-03-19T08:58:25;100144.97;;;13.27;36.40
43488;BME280;29078;41.932;25.554;2023-03-19T09:00:52;100180.44;;;13.64;36.42
43488;BME280;29078;41.932;25.554;2023-03-19T09:03:18;100170.84;;;13.63;36.00
43488;BME280;29078;41.932;25.554;2023-03-19T09:05:45;100171.13;;;13.68;35.84
43488;BME280;29078;41.932;25.554;2023-03-19T09:08:11;100161.78;;;13.72;35.67
43488;BME280;29078;41.932;25.554;2023-03-19T09:10:37;100097.56;;;13.47;35.78
43488;BME280;29078;41.932;25.554;2023-03-19T09:13:03;100186.56;;;14.09;35.68
43488;BME280;29078;41.932;25.554;2023-03-19T09:15:28;100063.16;;;13.54;35.74
43488;BME280;29078;41.932;25.554;2023-03-19T09:17:54;100107.47;;;14.04;35.24
43488;BME280;29078;41.932;25.554;2023-03-19T09:20:20;100090.81;;;13.95;35.23
43488;BME280;29078;41.932;25.554;2023-03-19T09:22:45;100167.56;;;14.56;34.91
43488;BME280;29078;41.932;25.554;2023-03-19T09:25:11;100061.25;;;13.98;35.11
43488;BME280;29078;41.932;25.554;2023-03-19T09:27:36;100155.91;;;14.78;34.85
43488;BME280;29078;41.932;25.554;2023-03-19T09:30:03;100157.47;;;14.87;34.63
43488;BME280;29078;41.932;25.554;2023-03-19T09:32:29;100092.72;;;14.52;34.89
43488;BME280;29078;41.932;25.554;2023-03-19T09:34:54;100151.81;;;14.97;34.85
43488;BME280;29078;41.932;25.554;2023-03-19T09:37:20;100155.03;;;15.14;34.55
43488;BME280;29078;41.932;25.554;2023-03-19T09:39:46;100144.88;;;15.24;34.45
43488;BME280;29078;41.932;25.554;2023-03-19T09:44:58;100133.19;;;15.53;34.14
43488;BME280;29078;41.932;25.554;2023-03-19T09:49:56;100133.00;;;15.82;34.22
43488;BME280;29078;41.932;25.554;2023-03-19T09:52:29;100129.59;;;15.95;34.02
43488;BME280;29078;41.932;25.554;2023-03-19T09:54:59;100104.81;;;16.01;33.88
43488;BME280;29078;41.932;25.554;2023-03-19T09:57:25;100124.34;;;16.21;33.60
43488;BME280;29078;41.932;25.554;2023-03-19T09:59:54;100123.19;;;16.37;33.48
43488;BME280;29078;41.932;25.554;2023-03-19T10:05:00;100094.13;;;16.62;33.24
43488;BME280;29078;41.932;25.554;2023-03-19T10:12:58;100108.13;;;17.10;33.06
43488;BME280;29078;41.932;25.554;2023-03-19T10:15:32;100040.19;;;16.87;33.01
43488;BME280;29078;41.932;25.554;2023-03-19T10:18:18;100097.78;;;17.47;32.68
43488;BME280;29078;41.932;25.554;2023-03-19T10:20:57;100037.50;;;17.26;32.46
43488;BME280;29078;41.932;25.554;2023-03-19T10:26:02;100053.59;;;17.64;32.12
43488;BME280;29078;41.932;25.554;2023-03-19T10:28:28;100068.56;;;17.78;31.97
43488;BME280;29078;41.932;25.554;2023-03-19T10:31:03;100046.16;;;17.79;31.92
43488;BME280;29078;41.932;25.554;2023-03-19T10:33:44;100081.13;;;18.16;31.79
43488;BME280;29078;41.932;25.554;2023-03-19T10:36:12;100049.53;;;18.06;32.08
43488;BME280;29078;41.932;25.554;2023-03-19T10:38:41;100068.47;;;18.36;31.62
43488;BME280;29078;41.932;25.554;2023-03-19T10:41:31;100072.75;;;18.44;31.65
43488;BME280;29078;41.932;25.554;2023-03-19T10:44:05;100014.84;;;18.31;31.41
43488;BME280;29078;41.932;25.554;2023-03-19T10:46:39;100052.28;;;18.88;31.19
43488;BME280;29078;41.932;25.554;2023-03-19T10:49:10;100038.84;;;18.94;30.62
43488;BME280;29078;41.932;25.554;2023-03-19T10:51:36;100043.78;;;19.16;30.65
43488;BME280;29078;41.932;25.554;2023-03-19T10:54:23;100034.56;;;19.12;30.51
43488;BME280;29078;41.932;25.554;2023-03-19T10:56:54;100006.00;;;19.05;30.22
43488;BME280;29078;41.932;25.554;2023-03-19T11:02:15;99937.00;;;18.89;30.37
43488;BME280;29078;41.932;25.554;2023-03-19T11:04:41;100016.44;;;19.50;30.46
43488;BME280;29078;41.932;25.554;2023-03-19T11:07:18;100024.13;;;19.65;30.30
43488;BME280;29078;41.932;25.554;2023-03-19T11:09:48;100006.81;;;19.79;30.14
43488;BME280;29078;41.932;25.554;2023-03-19T11:12:24;99984.97;;;19.64;30.22
43488;BME280;29078;41.932;25.554;2023-03-19T11:14:52;100011.19;;;19.92;30.33
43488;BME280;29078;41.932;25.554;2023-03-19T11:17:27;100000.28;;;20.05;29.92
43488;BME280;29078;41.932;25.554;2023-03-19T11:19:58;99932.94;;;19.72;29.96
43488;BME280;29078;41.932;25.554;2023-03-19T11:22:30;99998.97;;;20.26;29.90
43488;BME280;29078;41.932;25.554;2023-03-19T11:25:02;99998.16;;;20.37;29.60
43488;BME280;29078;41.932;25.554;2023-03-19T11:27:34;99997.50;;;20.42;29.51
43488;BME280;29078;41.932;25.554;2023-03-19T11:30:01;99995.06;;;20.52;29.23
43488;BME280;29078;41.932;25.554;2023-03-19T11:32:45;99989.47;;;20.65;29.17
43488;BME280;29078;41.932;25.554;2023-03-19T11:38:36;99976.06;;;20.77;28.80
43488;BME280;29078;41.932;25.554;2023-03-19T11:41:35;99935.00;;;20.53;28.32
43488;BME280;29078;41.932;25.554;2023-03-19T11:44:16;99963.81;;;20.69;28.88
43488;BME280;29078;41.932;25.554;2023-03-19T11:49:36;99959.47;;;20.80;28.69
43488;BME280;29078;41.932;25.554;2023-03-19T11:52:12;99947.50;;;20.82;28.58
43488;BME280;29078;41.932;25.554;2023-03-19T12:00:55;99948.63;;;20.75;28.78
43488;BME280;29078;41.932;25.554;2023-03-19T12:08:49;99910.47;;;20.26;29.26
43488;BME280;29078;41.932;25.554;2023-03-19T12:14:08;99887.03;;;19.68;29.87
43488;BME280;29078;41.932;25.554;2023-03-19T12:29:46;99910.22;;;19.44;30.08
43488;BME280;29078;41.932;25.554;2023-03-19T12:35:30;99911.06;;;19.08;30.58
43488;BME280;29078;41.932;25.554;2023-03-19T12:38:11;99874.06;;;18.68;30.86
43488;BME280;29078;41.932;25.554;2023-03-19T12:40:51;99916.50;;;18.83;30.95
43488;BME280;29078;41.932;25.554;2023-03-19T12:52:14;99909.88;;;18.67;31.29
43488;BME280;29078;41.932;25.554;2023-03-19T12:54:50;99851.31;;;18.34;31.47
43488;BME280;29078;41.932;25.554;2023-03-19T13:00:37;99892.47;;;18.58;31.59
43488;BME280;29078;41.932;25.554;2023-03-19T13:05:39;99819.38;;;18.21;31.72
43488;BME280;29078;41.932;25.554;2023-03-19T13:10:50;99886.41;;;18.69;31.88
43488;BME280;29078;41.932;25.554;2023-03-19T13:13:47;99885.13;;;18.72;31.81
43488;BME280;29078;41.932;25.554;2023-03-19T13:19:40;99874.59;;;18.77;31.78
43488;BME280;29078;41.932;25.554;2023-03-19T13:22:17;99885.00;;;18.85;31.59
43488;BME280;29078;41.932;25.554;2023-03-19T13:24:45;99832.31;;;18.67;31.55
43488;BME280;29078;41.932;25.554;2023-03-19T13:27:26;99858.31;;;18.79;31.39
43488;BME280;29078;41.932;25.554;2023-03-19T13:35:21;99837.88;;;18.84;31.35
43488;BME280;29078;41.932;25.554;2023-03-19T13:37:55;99742.75;;;18.33;31.51
43488;BME280;29078;41.932;25.554;2023-03-19T13:43:22;99813.63;;;18.97;31.45
43488;BME280;29078;41.932;25.554;2023-03-19T13:51:04;99852.53;;;19.60;31.33
43488;BME280;29078;41.932;25.554;2023-03-19T13:56:01;99851.91;;;19.88;30.81
43488;BME280;29078;41.932;25.554;2023-03-19T13:58:29;99797.00;;;19.67;30.55
43488;BME280;29078;41.932;25.554;2023-03-19T14:04:02;99846.81;;;20.33;30.40
43488;BME280;29078;41.932;25.554;2023-03-19T14:06:39;99846.09;;;20.38;30.41
43488;BME280;29078;41.932;25.554;2023-03-19T14:11:54;99774.66;;;20.20;29.94
43488;BME280;29078;41.932;25.554;2023-03-19T14:14:21;99837.78;;;20.74;30.11
43488;BME280;29078;41.932;25.554;2023-03-19T14:16:48;99835.34;;;20.84;29.68
43488;BME280;29078;41.932;25.554;2023-03-19T14:19:17;99834.78;;;20.82;29.96
43488;BME280;29078;41.932;25.554;2023-03-19T14:27:00;99831.97;;;20.77;30.22
43488;BME280;29078;41.932;25.554;2023-03-19T14:29:27;99793.28;;;20.61;30.41
43488;BME280;29078;41.932;25.554;2023-03-19T14:31:56;99832.75;;;20.89;30.08
43488;BME280;29078;41.932;25.554;2023-03-19T14:34:52;99830.66;;;20.91;29.90